Time;durP1;ratioP1;P1;durP2;ratioP2;P2;SDS_P1;SDS_P2;PMS_P1;PMS_P2;Temp;Humidity;BMP_temperature;BMP_pressure;BME280_temperature;BME280_humidity;BME280_pressure;Samples;Min_cycle;Max_cycle;Signal;HPM_P1;HPM_P2
2021/04/10 00:02:06;;;;;;;8.57;6.17;;;;;;;5.23;100.00;100617.66;4968854;28;20742;-71
2021/04/10 00:04:34;;;;;;;9.67;6.07;;;;;;;5.29;100.00;100616.69;4971027;28;20679;-70
2021/04/10 00:07:00;;;;;;;8.07;5.77;;;;;;;5.25;100.00;100610.13;4952739;28;20234;-70
2021/04/10 00:09:25;;;;;;;10.97;6.43;;;;;;;5.29;100.00;100611.28;4954001;28;20244;-70
2021/04/10 00:11:51;;;;;;;9.67;5.30;;;;;;;5.29;100.00;100611.28;4969692;28;20226;-70
2021/04/10 00:14:19;;;;;;;9.43;5.43;;;;;;;5.34;100.00;100622.19;4970069;28;20233;-70
2021/04/10 00:16:47;;;;;;;9.23;5.23;;;;;;;5.37;100.00;100613.63;4953649;28;20234;-70
2021/04/10 00:19:13;;;;;;;8.40;5.47;;;;;;;5.45;100.00;100605.16;4953811;28;20194;-71
2021/04/10 00:21:38;;;;;;;10.00;5.47;;;;;;;5.47;100.00;100603.03;4969918;28;20222;-71
2021/04/10 00:24:05;;;;;;;9.53;4.83;;;;;;;5.47;100.00;100608.44;4971243;28;20194;-69
2021/04/10 00:26:34;;;;;;;7.60;5.20;;;;;;;5.43;100.00;100604.59;4956527;28;20234;-70
2021/04/10 00:29:01;;;;;;;6.87;4.70;;;;;;;5.43;100.00;100596.50;4973625;28;20222;-69
2021/04/10 00:31:29;;;;;;;7.57;4.83;;;;;;;5.38;100.00;100596.41;4982904;28;20724;-69
2021/04/10 00:33:57;;;;;;;7.97;5.00;;;;;;;5.34;100.00;100595.25;4964545;28;20226;-70
2021/04/10 00:36:22;;;;;;;6.33;4.33;;;;;;;5.14;100.00;100600.22;4956940;28;20246;-70
2021/04/10 00:38:48;;;;;;;6.90;4.30;;;;;;;5.07;100.00;100596.88;4972976;28;20610;-70
2021/04/10 00:41:18;;;;;;;5.77;4.27;;;;;;;5.09;100.00;100602.00;4972330;28;20230;-69
2021/04/10 00:43:46;;;;;;;8.53;4.40;;;;;;;5.00;100.00;100601.56;4988744;28;20206;-70
2021/04/10 00:46:12;;;;;;;6.87;4.47;;;;;;;5.18;100.00;100596.03;4973602;28;20218;-69
2021/04/10 00:48:40;;;;;;;8.80;4.63;;;;;;;5.42;100.00;100595.69;4974432;28;20202;-69
2021/04/10 00:51:06;;;;;;;6.37;4.43;;;;;;;5.25;100.00;100604.75;4974575;28;20234;-70
2021/04/10 00:53:32;;;;;;;6.87;4.77;;;;;;;5.42;100.00;100598.38;4972979;28;20190;-69
2021/04/10 00:56:02;;;;;;;10.60;4.70;;;;;;;5.32;100.00;100597.38;4973977;28;20225;-70
2021/04/10 00:58:28;;;;;;;8.23;4.37;;;;;;;5.17;100.00;100597.06;4957484;28;20202;-70
2021/04/10 01:00:56;;;;;;;9.07;4.30;;;;;;;5.20;100.00;100601.16;4956669;28;20228;-70
2021/04/10 01:03:24;;;;;;;5.83;4.30;;;;;;;5.22;100.00;100607.94;4940263;28;20178;-71
2021/04/10 01:05:50;;;;;;;4.73;3.87;;;;;;;5.11;100.00;100611.50;4956423;28;20305;-70
2021/04/10 01:08:16;;;;;;;5.43;4.20;;;;;;;5.16;100.00;100619.63;4956821;28;20684;-70
2021/04/10 01:10:44;;;;;;;7.13;4.57;;;;;;;5.09;100.00;100615.44;4956019;28;20233;-70
2021/04/10 01:13:27;;;;;;;7.53;4.63;;;;;;;5.24;100.00;100618.44;4975412;28;20198;-70
2021/04/10 01:16:25;;;;;;;7.97;4.40;;;;;;;5.21;100.00;100614.38;4964837;28;20233;-69
2021/04/10 01:19:16;;;;;;;8.63;3.87;;;;;;;5.10;100.00;100620.59;4959884;28;20225;-70
2021/04/10 01:21:52;;;;;;;8.00;4.03;;;;;;;5.23;100.00;100627.59;4972767;28;20624;-70
2021/04/10 01:24:39;;;;;;;5.47;4.00;;;;;;;5.45;100.00;100624.81;4971462;28;20683;-70
2021/04/10 01:27:17;;;;;;;6.23;3.90;;;;;;;5.45;100.00;100627.50;4987877;28;20226;-71
2021/04/10 01:29:45;;;;;;;7.13;4.17;;;;;;;5.59;100.00;100622.69;4973720;28;20609;-70
2021/04/10 01:32:11;;;;;;;6.23;4.30;;;;;;;5.66;100.00;100618.78;4954713;28;20222;-69
2021/04/10 01:34:48;;;;;;;8.37;5.03;;;;;;;5.56;100.00;100617.75;4988109;28;20202;-70
2021/04/10 01:37:17;;;;;;;9.47;4.90;;;;;;;5.50;100.00;100610.66;4955438;28;20236;-70
2021/04/10 01:39:42;;;;;;;5.67;4.37;;;;;;;5.34;100.00;100614.09;4989862;28;20310;-70
2021/04/10 01:42:09;;;;;;;6.77;4.20;;;;;;;5.34;100.00;100614.09;4971069;28;20245;-70
2021/04/10 01:44:34;;;;;;;7.20;4.37;;;;;;;5.26;100.00;100611.78;4972369;28;20230;-70
2021/04/10 01:47:02;;;;;;;8.33;4.37;;;;;;;5.12;100.00;100610.41;4971431;28;20635;-69
2021/04/10 01:49:29;;;;;;;8.67;4.40;;;;;;;5.22;100.00;100607.94;4950056;28;20668;-70
2021/04/10 01:51:54;;;;;;;6.40;4.97;;;;;;;5.30;100.00;100623.72;4963616;28;20225;-72
2021/04/10 01:54:20;;;;;;;7.30;4.87;;;;;;;5.27;100.00;100613.41;4972108;28;20193;-69
2021/04/10 01:56:47;;;;;;;8.30;5.17;;;;;;;5.24;100.00;100618.44;4955464;28;20234;-70
2021/04/10 01:59:20;;;;;;;8.27;4.83;;;;;;;5.02;100.00;100617.47;4956903;28;20249;-69
2021/04/10 02:01:49;;;;;;;8.70;5.20;;;;;;;4.98;100.00;100614.44;4939848;28;20228;-70
2021/04/10 02:04:15;;;;;;;9.83;5.00;;;;;;;5.03;100.00;100617.22;4955499;28;20194;-70
2021/04/10 02:06:46;;;;;;;7.73;4.93;;;;;;;5.08;100.00;100609.25;4954516;28;20249;-70
2021/04/10 02:09:15;;;;;;;7.50;5.37;;;;;;;5.12;100.00;100610.41;4955351;28;20190;-70
2021/04/10 02:12:07;;;;;;;5.83;4.70;;;;;;;5.03;100.00;100606.47;4969405;28;20218;-69
2021/04/10 02:14:40;;;;;;;7.67;4.97;;;;;;;4.77;100.00;100610.75;4955424;28;20186;-69
2021/04/10 02:17:10;;;;;;;7.20;5.00;;;;;;;4.71;100.00;100611.69;4955011;28;20738;-69
2021/04/10 02:19:46;;;;;;;7.37;5.03;;;;;;;4.75;100.00;100619.03;4948832;28;20198;-69
2021/04/10 02:22:13;;;;;;;10.07;5.30;;;;;;;4.86;100.00;100623.59;4970049;28;20222;-70
2021/04/10 02:24:42;;;;;;;6.57;4.83;;;;;;;4.82;100.00;100621.63;4972313;28;20251;-70
2021/04/10 02:27:10;;;;;;;7.20;5.10;;;;;;;4.84;100.00;100622.19;4970557;28;20268;-70
2021/04/10 02:29:48;;;;;;;7.33;5.20;;;;;;;4.84;100.00;100633.75;4956357;28;20297;-71
2021/04/10 02:32:19;;;;;;;7.87;5.27;;;;;;;4.84;100.00;100628.38;4937960;28;20288;-70
2021/04/10 02:35:21;;;;;;;7.37;5.03;;;;;;;4.97;100.00;100631.63;4939723;28;20189;-70
2021/04/10 02:37:47;;;;;;;8.83;5.10;;;;;;;5.09;100.00;100632.44;4954677;28;20230;-71
2021/04/10 02:40:17;;;;;;;10.10;4.53;;;;;;;5.06;100.00;100637.47;4938412;28;20182;-70
2021/04/10 02:42:46;;;;;;;5.23;4.57;;;;;;;4.97;100.00;100638.88;4953792;28;20186;-70
2021/04/10 02:45:12;;;;;;;6.90;4.63;;;;;;;5.02;100.00;100641.69;4937928;28;20186;-71
2021/04/10 02:47:43;;;;;;;5.87;4.63;;;;;;;5.05;100.00;100649.28;4954472;28;20206;-71
2021/04/10 02:50:12;;;;;;;5.80;4.50;;;;;;;5.07;100.00;100645.31;4957804;28;20618;-70
2021/04/10 02:52:42;;;;;;;5.70;4.20;;;;;;;5.06;100.00;100642.84;4951113;28;20183;-69
2021/04/10 02:55:17;;;;;;;6.13;4.30;;;;;;;5.12;100.00;100647.28;4904040;29;20907;-70
2021/04/10 02:57:45;;;;;;;6.73;4.23;;;;;;;5.34;100.00;100652.59;4920199;29;20203;-70
2021/04/10 03:00:11;;;;;;;9.93;6.90;;;;;;;5.05;100.00;100652.81;4919607;29;20748;-69
2021/04/10 03:02:44;;;;;;;6.73;4.57;;;;;;;5.06;100.00;100642.84;4950330;23;20629;-69
2021/04/10 03:05:13;;;;;;;7.93;4.77;;;;;;;5.14;100.00;100655.94;4899682;29;20187;-69
2021/04/10 03:07:46;;;;;;;6.67;4.53;;;;;;;5.29;100.00;100649.00;4931627;29;20302;-70
2021/04/10 03:10:14;;;;;;;7.43;4.80;;;;;;;5.37;100.00;100672.88;4931613;28;20211;-69
2021/04/10 03:12:40;;;;;;;6.63;4.53;;;;;;;5.52;100.00;100659.69;4900194;29;20187;-69
2021/04/10 03:15:07;;;;;;;9.73;5.03;;;;;;;5.44;100.00;100662.78;4915446;28;20180;-68
2021/04/10 03:17:42;;;;;;;5.80;4.50;;;;;;;5.55;100.00;100653.81;4932386;29;20208;-68
2021/04/10 03:20:13;;;;;;;7.00;4.60;;;;;;;5.55;100.00;100659.22;4939467;29;20180;-69
2021/04/10 03:22:50;;;;;;;6.23;4.23;;;;;;;5.45;100.00;100659.81;4947082;29;20183;-70
2021/04/10 03:25:24;;;;;;;7.97;4.87;;;;;;;5.48;100.00;100663.94;4931275;29;20310;-69
2021/04/10 03:27:53;;;;;;;6.47;4.10;;;;;;;5.33;100.00;100662.78;4932538;29;20210;-68
2021/04/10 03:30:22;;;;;;;5.50;4.00;;;;;;;5.28;100.00;100673.47;4931391;28;20215;-69
2021/04/10 03:32:49;;;;;;;5.40;4.00;;;;;;;5.31;100.00;100673.81;4915635;29;20198;-69
2021/04/10 03:35:15;;;;;;;6.47;4.20;;;;;;;5.38;100.00;100677.19;4915628;29;20180;-69
2021/04/10 03:37:41;;;;;;;5.33;3.50;;;;;;;5.42;100.00;100678.34;4916119;29;20239;-69
2021/04/10 03:40:11;;;;;;;5.23;3.80;;;;;;;5.58;100.00;100683.78;4916379;29;20186;-69
2021/04/10 03:42:42;;;;;;;6.80;4.50;;;;;;;5.53;100.00;100694.47;4931090;29;20195;-68
2021/04/10 03:45:11;;;;;;;8.43;4.90;;;;;;;5.12;100.00;100701.94;4931860;29;20184;-69
2021/04/10 03:47:40;;;;;;;7.33;4.50;;;;;;;5.24;100.00;100699.22;4931520;29;20219;-69
2021/04/10 03:50:08;;;;;;;8.87;4.87;;;;;;;5.51;100.00;100695.75;4911561;28;20203;-70
2021/04/10 03:52:35;;;;;;;8.00;4.87;;;;;;;5.57;100.00;100694.81;4945423;28;20286;-70
2021/04/10 03:55:04;;;;;;;9.10;5.40;;;;;;;5.59;100.00;100687.31;4947666;29;20641;-69
2021/04/10 03:57:31;;;;;;;10.13;5.20;;;;;;;5.52;100.00;100690.13;4949992;28;20211;-69
2021/04/10 04:00:02;;;;;;;9.60;5.13;;;;;;;5.59;100.00;100687.31;4954919;28;20179;-69
2021/04/10 04:02:43;;;;;;;11.13;5.30;;;;;;;5.61;100.00;100685.22;4967650;28;20219;-70
2021/04/10 04:05:20;;;;;;;15.03;5.80;;;;;;;5.51;100.00;100680.44;4969378;28;20187;-69
2021/04/10 04:07:45;;;;;;;12.27;5.60;;;;;;;5.60;100.00;100684.38;4955259;28;20215;-69
2021/04/10 04:10:13;;;;;;;13.23;5.43;;;;;;;5.61;100.00;100686.00;4938167;28;20219;-69
2021/04/10 04:12:39;;;;;;;11.67;5.30;;;;;;;5.27;100.00;100694.19;4969789;28;20194;-69
2021/04/10 04:15:05;;;;;;;13.37;5.57;;;;;;;5.46;100.00;100688.41;4937832;28;20186;-69
2021/04/10 04:17:31;;;;;;;10.30;5.70;;;;;;;5.60;100.00;100697.03;4938059;29;20215;-70
2021/04/10 04:19:57;;;;;;;12.00;5.37;;;;;;;5.43;100.00;100698.84;4946263;29;20191;-69
2021/04/10 04:22:25;;;;;;;10.03;5.40;;;;;;;5.43;100.00;100704.22;4937794;28;20228;-68
2021/04/10 04:24:51;;;;;;;11.13;5.70;;;;;;;5.22;100.00;100699.47;4951080;29;20198;-68
2021/04/10 04:27:16;;;;;;;11.33;6.17;;;;;;;5.35;100.00;100705.41;4943547;28;20228;-69
2021/04/10 04:29:42;;;;;;;12.47;6.03;;;;;;;5.37;100.00;100711.38;4953951;29;20191;-69
2021/04/10 04:32:08;;;;;;;13.73;5.80;;;;;;;5.29;100.00;100713.59;4952706;29;20226;-70
2021/04/10 04:34:34;;;;;;;16.40;5.80;;;;;;;5.31;100.00;100718.75;4953924;29;20199;-69
2021/04/10 04:37:05;;;;;;;14.67;6.40;;;;;;;5.27;100.00;100715.72;4951947;28;20643;-70
2021/04/10 04:39:35;;;;;;;11.60;5.57;;;;;;;5.26;100.00;100713.28;4955028;28;20270;-69
2021/04/10 04:42:03;;;;;;;7.93;5.10;;;;;;;5.39;100.00;100713.84;4937071;29;20281;-69
2021/04/10 04:44:34;;;;;;;10.27;5.60;;;;;;;5.35;100.00;100712.69;4955034;28;20609;-70
2021/04/10 04:47:01;;;;;;;9.20;5.13;;;;;;;5.34;100.00;100719.09;4921599;29;20313;-69
2021/04/10 04:49:29;;;;;;;13.10;6.37;;;;;;;5.44;100.00;100722.84;4961510;28;20227;-70
2021/04/10 04:51:55;;;;;;;9.53;5.30;;;;;;;5.36;100.00;100725.06;4952537;29;20603;-71
2021/04/10 04:54:25;;;;;;;8.60;4.87;;;;;;;5.50;100.00;100721.88;4937685;29;20215;-69
2021/04/10 04:56:54;;;;;;;7.67;4.97;;;;;;;5.41;100.00;100730.56;4950615;29;20289;-70
2021/04/10 04:59:20;;;;;;;9.87;5.33;;;;;;;5.32;100.00;100728.50;4929288;29;20286;-68
2021/04/10 05:01:48;;;;;;;10.73;5.97;;;;;;;5.24;100.00;100735.06;4955311;28;20223;-69
2021/04/10 05:04:16;;;;;;;11.80;7.30;;;;;;;5.35;100.00;100734.22;4949532;29;20736;-70
2021/04/10 05:06:41;;;;;;;10.50;5.80;;;;;;;5.42;100.00;100729.50;4953176;28;20732;-71
2021/04/10 05:09:07;;;;;;;13.00;5.37;;;;;;;5.55;100.00;100734.63;4952699;28;20187;-70
2021/04/10 05:11:35;;;;;;;12.37;4.97;;;;;;;5.56;100.00;100731.69;4967799;28;20238;-69
2021/04/10 05:14:04;;;;;;;11.90;5.30;;;;;;;5.63;100.00;100734.28;4927121;29;20191;-70
2021/04/10 05:16:30;;;;;;;11.27;5.20;;;;;;;5.73;100.00;100742.59;4958797;28;20808;-69
2021/04/10 05:18:58;;;;;;;10.10;5.23;;;;;;;5.66;100.00;100744.56;4953548;29;20187;-70
2021/04/10 05:21:24;;;;;;;14.57;5.13;;;;;;;5.56;100.00;100757.81;4945281;28;20299;-70
2021/04/10 05:23:50;;;;;;;10.50;5.27;;;;;;;5.64;100.00;100754.75;4964543;28;20753;-69
2021/04/10 05:26:16;;;;;;;9.33;5.07;;;;;;;5.71;100.00;100764.34;4949836;28;20227;-70
2021/04/10 05:28:41;;;;;;;14.77;5.33;;;;;;;5.79;100.00;100759.44;4953794;29;20206;-70
2021/04/10 05:31:07;;;;;;;11.00;5.13;;;;;;;5.86;100.00;100754.72;4959617;28;20231;-69
2021/04/10 05:33:32;;;;;;;9.97;4.93;;;;;;;5.96;100.00;100763.00;4937139;29;20194;-70
2021/04/10 05:36:03;;;;;;;10.47;5.17;;;;;;;6.03;100.00;100766.38;4934547;29;20642;-69
2021/04/10 05:38:29;;;;;;;9.33;5.20;;;;;;;6.14;100.00;100763.63;4961986;28;20215;-69
2021/04/10 05:40:56;;;;;;;8.70;4.87;;;;;;;5.94;100.00;100775.91;4937411;29;20230;-69
2021/04/10 05:43:24;;;;;;;9.80;4.90;;;;;;;5.84;100.00;100772.19;4967356;28;20199;-69
2021/04/10 05:45:53;;;;;;;11.83;5.40;;;;;;;5.92;100.00;100775.34;4949614;29;20223;-69
2021/04/10 05:48:20;;;;;;;10.53;5.13;;;;;;;6.04;100.00;100784.19;4947055;29;20230;-70
2021/04/10 05:50:46;;;;;;;8.20;5.13;;;;;;;6.02;100.00;100786.31;4944920;29;20247;-70
2021/04/10 05:53:12;;;;;;;10.83;4.93;;;;;;;6.05;100.00;100791.22;4941491;29;20673;-69
2021/04/10 05:55:37;;;;;;;13.10;5.50;;;;;;;6.13;100.00;100790.84;4934116;29;20223;-70
2021/04/10 05:58:05;;;;;;;10.20;5.13;;;;;;;6.15;100.00;100794.09;4952556;29;20232;-69
2021/04/10 06:00:31;;;;;;;11.13;5.10;;;;;;;6.18;100.00;100801.72;4922217;28;20257;-71
2021/04/10 06:02:56;;;;;;;10.57;5.10;;;;;;;6.02;100.00;100804.38;4952501;28;20676;-70
2021/04/10 06:05:25;;;;;;;10.80;4.80;;;;;;;6.01;100.00;100800.84;4937833;28;20248;-69
2021/04/10 06:07:51;;;;;;;11.47;5.00;;;;;;;6.13;100.00;100803.50;4923119;29;20211;-69
2021/04/10 06:10:20;;;;;;;11.70;4.80;;;;;;;6.28;100.00;100812.69;4953006;28;20763;-69
2021/04/10 06:12:48;;;;;;;9.00;4.63;;;;;;;6.41;100.00;100828.59;4953088;29;20179;-69
2021/04/10 06:15:18;;;;;;;9.20;4.37;;;;;;;6.46;100.00;100820.59;4936842;28;20182;-71
2021/04/10 06:17:47;;;;;;;9.50;4.67;;;;;;;6.37;100.00;100817.47;4952957;29;20222;-70
2021/04/10 06:20:15;;;;;;;12.97;5.83;;;;;;;6.51;100.00;100828.81;4948110;28;20188;-69
2021/04/10 06:22:40;;;;;;;10.23;5.20;;;;;;;6.52;100.00;100825.88;4931942;29;20673;-70
2021/04/10 06:25:09;;;;;;;12.13;5.07;;;;;;;6.49;100.00;100825.53;4942881;28;20242;-69
2021/04/10 06:27:35;;;;;;;11.63;4.87;;;;;;;6.57;100.00;100828.63;4952234;29;20290;-70
2021/04/10 06:30:01;;;;;;;8.30;4.40;;;;;;;6.30;100.00;100829.44;4953173;28;20253;-70
2021/04/10 06:32:26;;;;;;;10.57;4.50;;;;;;;6.22;100.00;100827.16;4950580;28;20222;-70
2021/04/10 06:34:52;;;;;;;9.73;4.63;;;;;;;6.03;100.00;100820.31;4936386;29;20700;-69
2021/04/10 06:37:17;;;;;;;11.67;4.73;;;;;;;6.18;100.00;100826.00;4951562;29;20712;-70
2021/04/10 06:39:43;;;;;;;10.67;5.13;;;;;;;6.40;100.00;100826.97;4951719;29;20176;-69
2021/04/10 06:42:09;;;;;;;9.27;4.70;;;;;;;6.18;100.00;100823.31;4950778;29;20222;-68
2021/04/10 06:44:35;;;;;;;9.90;4.40;;;;;;;5.91;100.00;100827.59;4952115;29;20191;-69
2021/04/10 06:47:01;;;;;;;7.63;3.90;;;;;;;5.94;100.00;100832.50;4949407;28;20618;-69
2021/04/10 06:49:27;;;;;;;8.63;4.13;;;;;;;6.18;100.00;100834.91;4932800;29;20196;-68
2021/04/10 06:51:53;;;;;;;9.20;4.03;;;;;;;6.49;100.00;100836.31;4915480;29;20219;-69
2021/04/10 06:54:21;;;;;;;7.97;3.97;;;;;;;6.47;100.00;100844.66;4932949;29;20687;-69
2021/04/10 06:57:11;;;;;;;10.77;4.03;;;;;;;6.44;100.00;100855.91;4932187;29;20705;-69
2021/04/10 06:59:52;;;;;;;11.40;4.00;;;;;;;6.38;100.00;100856.06;4901641;29;20200;-69
2021/04/10 07:02:20;;;;;;;8.77;4.67;;;;;;;6.32;100.00;100851.63;4930840;29;20298;-69
2021/04/10 07:04:48;;;;;;;8.93;3.97;;;;;;;6.37;100.00;100859.81;4932881;29;20188;-69
2021/04/10 07:07:14;;;;;;;11.43;4.00;;;;;;;6.71;100.00;100865.06;4931500;29;20233;-70
2021/04/10 07:09:39;;;;;;;10.43;3.97;;;;;;;6.51;100.00;100873.59;4951207;28;20214;-71
2021/04/10 07:12:08;;;;;;;10.23;3.83;;;;;;;6.56;100.00;100871.00;4928849;28;20235;-69
2021/04/10 07:14:34;;;;;;;9.13;3.80;;;;;;;6.77;100.00;100881.09;4957392;28;20623;-69
2021/04/10 07:17:02;;;;;;;10.83;3.70;;;;;;;7.08;100.00;100869.78;4946944;28;20258;-68
2021/04/10 07:19:33;;;;;;;9.97;3.50;;;;;;;7.05;100.00;100881.06;4918226;29;20180;-69
2021/04/10 07:22:02;;;;;;;15.63;3.70;;;;;;;6.75;100.00;100883.22;4939432;28;20253;-70
2021/04/10 07:24:48;;;;;;;8.83;3.37;;;;;;;6.65;100.00;100885.75;4933465;29;20246;-70
2021/04/10 07:27:22;;;;;;;9.03;3.13;;;;;;;6.91;100.00;100885.16;4931245;29;20875;-69
2021/04/10 07:29:52;;;;;;;5.10;2.67;;;;;;;6.76;100.00;100884.88;4931904;29;20597;-68
2021/04/10 07:32:37;;;;;;;10.20;2.93;;;;;;;6.69;100.00;100881.50;4931838;28;20278;-70
2021/04/10 07:35:04;;;;;;;6.00;2.47;;;;;;;6.71;100.00;100890.16;4924281;28;20202;-69
2021/04/10 07:37:37;;;;;;;10.83;3.20;;;;;;;7.00;100.00;100884.50;4958895;28;20207;-69
2021/04/10 07:40:04;;;;;;;7.93;2.47;;;;;;;6.87;100.00;100889.41;4929727;29;20180;-69
2021/04/10 07:42:30;;;;;;;9.07;3.20;;;;;;;6.61;100.00;100890.00;4930364;29;20212;-70
2021/04/10 07:44:56;;;;;;;12.73;3.63;;;;;;;6.78;100.00;100885.44;4943057;29;20202;-70
2021/04/10 07:47:39;;;;;;;7.73;2.33;;;;;;;6.62;100.00;100890.81;4931638;29;20771;-69
2021/04/10 07:50:19;;;;;;;9.23;2.57;;;;;;;6.71;100.00;100895.56;4966627;28;20206;-70
2021/04/10 07:52:45;;;;;;;6.87;2.63;;;;;;;6.82;97.94;100907.38;4929203;28;20704;-69
2021/04/10 07:55:39;;;;;;;9.13;2.30;;;;;;;6.98;97.24;100907.41;4958812;28;20674;-69
2021/04/10 07:58:32;;;;;;;7.43;2.50;;;;;;;6.93;97.04;100905.44;4931852;29;20207;-69
2021/04/10 08:01:07;;;;;;;6.57;2.30;;;;;;;7.09;95.03;100920.84;4942147;28;20294;-69
2021/04/10 08:03:43;;;;;;;7.10;2.57;;;;;;;7.29;91.18;100911.22;4938963;29;20210;-68
2021/04/10 08:06:08;;;;;;;7.00;2.70;;;;;;;7.21;93.90;100912.69;4951147;28;20226;-68
2021/04/10 08:08:52;;;;;;;8.70;2.60;;;;;;;7.21;90.45;100912.69;4945156;29;20588;-68
2021/04/10 08:11:44;;;;;;;8.60;2.73;;;;;;;7.06;92.64;100917.81;4950093;29;20257;-69
2021/04/10 08:14:13;;;;;;;7.33;2.73;;;;;;;7.46;92.24;100917.44;4950767;28;20190;-68
2021/04/10 08:16:42;;;;;;;8.23;2.30;;;;;;;7.69;90.83;100922.66;4902247;29;20318;-68
2021/04/10 08:19:10;;;;;;;6.33;2.60;;;;;;;7.64;89.82;100928.00;4947748;29;20274;-68
2021/04/10 08:21:43;;;;;;;9.20;2.77;;;;;;;7.60;90.86;100934.97;4931889;29;20227;-70
2021/04/10 08:24:38;;;;;;;8.07;2.47;;;;;;;7.80;88.13;100940.69;4940852;29;20187;-70
2021/04/10 08:27:12;;;;;;;10.10;2.50;;;;;;;7.87;87.77;100939.44;4945738;28;20223;-69
2021/04/10 08:29:38;;;;;;;13.43;2.23;;;;;;;7.88;89.89;100942.97;4952530;28;20710;-71
2021/04/10 08:32:04;;;;;;;9.13;2.60;;;;;;;8.03;88.85;100944.81;4919298;29;20768;-70
2021/04/10 08:34:31;;;;;;;9.10;2.33;;;;;;;8.18;83.32;100936.94;4952324;29;20697;-69
2021/04/10 08:37:09;;;;;;;5.67;1.93;;;;;;;8.06;83.51;100936.22;4951598;28;20226;-68
2021/04/10 08:39:43;;;;;;;6.33;1.90;;;;;;;7.68;83.09;100927.25;4935537;29;20661;-70
2021/04/10 08:42:08;;;;;;;5.77;1.90;;;;;;;7.81;81.35;100945.03;4918559;29;20231;-70
2021/04/10 08:44:36;;;;;;;7.27;2.00;;;;;;;7.72;82.33;100935.69;4938334;29;20190;-70
2021/04/10 08:47:02;;;;;;;8.30;2.20;;;;;;;7.80;82.13;100940.69;4922292;29;20227;-70
2021/04/10 08:49:34;;;;;;;9.03;2.27;;;;;;;7.45;80.65;100937.41;4937851;29;20198;-71
2021/04/10 08:52:05;;;;;;;7.00;1.70;;;;;;;7.47;80.51;100946.13;4952349;29;20732;-70
2021/04/10 08:54:32;;;;;;;6.73;2.00;;;;;;;7.75;82.23;100948.72;4954629;28;20195;-71
2021/04/10 08:56:57;;;;;;;7.97;2.10;;;;;;;8.01;81.47;100948.84;4953282;28;20238;-70
2021/04/10 08:59:25;;;;;;;6.13;1.80;;;;;;;8.26;76.96;100958.19;4954121;28;20183;-70
2021/04/10 09:02:09;;;;;;;8.50;1.77;;;;;;;8.71;72.84;100956.06;4952833;28;20356;-70
2021/04/10 09:05:07;;;;;;;4.60;1.30;;;;;;;9.21;68.12;100955.53;4942426;29;20183;-70
2021/04/10 09:07:48;;;;;;;6.53;1.70;;;;;;;9.22;64.07;100957.97;4940435;29;20223;-73
2021/04/10 09:10:28;;;;;;;4.07;1.10;;;;;;;8.99;61.32;100960.19;4953281;28;20671;-71
2021/04/10 09:13:05;;;;;;;5.17;1.57;;;;;;;9.04;62.13;100968.34;4954108;29;20238;-70
2021/04/10 09:15:34;;;;;;;8.70;2.07;;;;;;;9.30;62.10;100954.00;4952553;28;20747;-71
2021/04/10 09:18:01;;;;;;;6.20;1.87;;;;;;;9.20;63.63;100956.63;4938422;29;20238;-69
2021/04/10 09:20:41;;;;;;;7.87;1.67;;;;;;;9.55;63.03;100952.34;4953689;28;20234;-71
2021/04/10 09:23:10;;;;;;;8.90;2.10;;;;;;;9.57;62.31;100956.41;4951108;29;20187;-70
2021/04/10 09:25:35;;;;;;;6.60;1.83;;;;;;;9.76;60.84;100957.69;4952512;29;20218;-70
2021/04/10 09:28:07;;;;;;;7.20;2.93;;;;;;;9.71;59.27;100971.19;4945710;29;20214;-70
2021/04/10 09:30:36;;;;;;;7.53;1.93;;;;;;;9.70;59.26;100969.53;4927231;28;20725;-70
2021/04/10 09:33:23;;;;;;;5.40;1.87;;;;;;;10.07;58.37;100981.25;4939238;29;20259;-70
2021/04/10 09:35:48;;;;;;;6.97;2.00;;;;;;;10.18;59.26;100983.78;4934321;29;20350;-71
2021/04/10 09:38:14;;;;;;;7.07;1.70;;;;;;;10.63;57.18;100990.28;4918852;29;20716;-70
2021/04/10 09:40:48;;;;;;;8.03;1.50;;;;;;;9.97;57.98;100992.03;4918023;29;20243;-69
2021/04/10 09:43:18;;;;;;;5.23;1.60;;;;;;;9.46;59.90;100991.84;4932954;29;20631;-71
2021/04/10 09:45:46;;;;;;;8.97;1.93;;;;;;;9.53;60.11;100997.06;4934542;28;20684;-71
2021/04/10 09:48:15;;;;;;;5.90;1.50;;;;;;;9.32;59.26;100997.91;4950528;28;20314;-70
2021/04/10 09:50:49;;;;;;;4.97;1.30;;;;;;;8.97;60.78;100994.84;4920380;29;20262;-69
2021/04/10 09:53:16;;;;;;;5.97;1.50;;;;;;;9.39;58.97;100993.94;4938810;29;20186;-70
2021/04/10 09:55:48;;;;;;;7.50;1.57;;;;;;;9.15;59.05;100993.69;4927633;29;20305;-69
2021/04/10 09:58:17;;;;;;;6.40;1.63;;;;;;;9.64;58.19;100992.28;4952903;28;20238;-70
2021/04/10 10:00:43;;;;;;;6.03;1.60;;;;;;;9.38;57.79;100996.91;4951248;28;20620;-71
2021/04/10 10:03:10;;;;;;;8.30;2.60;;;;;;;9.99;56.82;100995.31;4951515;29;20199;-70
2021/04/10 10:05:39;;;;;;;5.50;1.70;;;;;;;10.18;55.38;100996.53;4952074;28;20647;-70
2021/04/10 10:08:05;;;;;;;5.80;1.53;;;;;;;10.32;54.72;100995.81;4953421;28;20195;-71
2021/04/10 10:10:32;;;;;;;5.63;1.70;;;;;;;10.49;53.20;100991.03;4936191;28;20337;-70
2021/04/10 10:13:04;;;;;;;5.63;1.63;;;;;;;11.02;53.41;100989.63;4936103;29;20179;-69
2021/04/10 10:15:30;;;;;;;5.43;1.50;;;;;;;10.74;52.04;100986.53;4968428;28;20230;-70
2021/04/10 10:17:59;;;;;;;5.37;1.80;;;;;;;9.93;54.41;100993.66;4951776;29;20294;-70
2021/04/10 10:20:25;;;;;;;6.67;1.97;;;;;;;10.57;53.47;100985.09;4952258;28;20195;-70
2021/04/10 10:22:51;;;;;;;7.10;1.60;;;;;;;10.83;53.89;100996.63;4967965;28;20190;-70
2021/04/10 10:25:17;;;;;;;4.70;1.57;;;;;;;10.54;54.26;100997.31;4951382;28;20195;-70
2021/04/10 10:27:47;;;;;;;5.67;2.00;;;;;;;9.63;54.95;101000.66;4954201;29;20210;-70
2021/04/10 10:30:16;;;;;;;5.70;2.00;;;;;;;9.89;56.98;100989.78;4968935;28;20241;-70
2021/04/10 10:32:46;;;;;;;5.60;1.57;;;;;;;10.43;53.74;100992.88;4953317;28;20238;-71
2021/04/10 10:35:15;;;;;;;5.17;1.40;;;;;;;10.64;52.21;100991.94;4952817;28;20187;-71
2021/04/10 10:37:48;;;;;;;4.37;1.37;;;;;;;10.84;50.95;100989.28;4952960;29;20221;-70
2021/04/10 10:40:20;;;;;;;7.60;1.70;;;;;;;11.52;52.40;100985.97;4920688;28;20254;-72
2021/04/10 10:43:06;;;;;;;5.83;1.67;;;;;;;10.56;51.99;100986.19;4931675;29;20658;-70
2021/04/10 10:45:51;;;;;;;5.33;1.60;;;;;;;10.35;52.63;100984.44;4932502;29;20215;-70
2021/04/10 10:48:34;;;;;;;5.03;1.50;;;;;;;10.93;51.55;100988.53;4917345;29;20203;-70
2021/04/10 10:50:59;;;;;;;4.27;1.63;;;;;;;11.16;51.69;100977.19;4917484;29;20235;-69
2021/04/10 10:53:26;;;;;;;4.37;1.40;;;;;;;10.80;52.40;100988.19;4932726;29;20191;-71
2021/04/10 10:56:21;;;;;;;7.27;1.80;;;;;;;11.31;51.04;100969.84;4908919;29;20701;-70
2021/04/10 10:58:59;;;;;;;4.57;1.60;;;;;;;10.94;50.55;100979.28;4938041;29;20197;-70
2021/04/10 11:01:26;;;;;;;5.47;2.00;;;;;;;11.34;50.80;100972.06;4948515;28;20666;-72
2021/04/10 11:03:55;;;;;;;10.20;3.33;;;;;;;11.31;50.00;100975.28;4941085;29;20204;-72
2021/04/10 11:06:25;;;;;;;11.00;6.17;;;;;;;11.64;50.84;100974.84;4944077;28;20225;-71
2021/04/10 11:08:51;;;;;;;5.70;1.63;;;;;;;11.39;49.67;100976.66;4930672;29;20195;-70
2021/04/10 11:11:20;;;;;;;5.10;1.50;;;;;;;11.12;49.77;100975.25;4934976;29;20343;-69
2021/04/10 11:13:47;;;;;;;5.90;1.50;;;;;;;11.17;51.33;100968.75;4961936;28;20195;-70
2021/04/10 11:16:14;;;;;;;5.07;1.93;;;;;;;11.02;50.60;100976.03;4934739;28;20279;-70
2021/04/10 11:18:40;;;;;;;7.30;1.90;;;;;;;11.13;51.31;100973.09;4941860;28;20215;-72
2021/04/10 11:21:25;;;;;;;5.83;2.03;;;;;;;11.56;50.37;100967.22;4951990;28;20273;-71
2021/04/10 11:23:56;;;;;;;5.07;1.50;;;;;;;11.92;50.99;100956.88;4946407;29;20198;-72
2021/04/10 11:26:45;;;;;;;4.40;1.40;;;;;;;11.97;51.67;100964.22;4931867;29;20289;-71
2021/04/10 11:29:18;;;;;;;3.53;1.20;;;;;;;12.04;51.33;100964.75;4952702;28;20270;-72
2021/04/10 11:32:15;;;;;;;6.13;2.10;;;;;;;11.95;48.94;100963.69;4960703;28;20643;-71
2021/04/10 11:34:47;;;;;;;7.70;1.60;;;;;;;11.25;51.01;100960.06;4951119;29;20566;-72
2021/04/10 11:37:32;;;;;;;6.97;1.67;;;;;;;11.05;50.09;100961.13;4958448;28;20270;-70
2021/04/10 11:40:01;;;;;;;6.17;1.80;;;;;;;11.05;50.84;100959.19;4918670;29;20745;-70